Time;durP1;ratioP1;P1;durP2;ratioP2;P2;SDS_P1;SDS_P2;PMS_P1;PMS_P2;Temp;Humidity;BMP_temperature;BMP_pressure;BME280_temperature;BME280_humidity;BME280_pressure;Samples;Min_cycle;Max_cycle;Signal;HPM_P1;HPM_P2
2023/05/23 00:02:12;;;;;;;;;;;;;;;14.17;100.00;101898.78;5022419;28;20573;-44
2023/05/23 00:04:37;;;;;;;;;;;;;;;14.16;100.00;101891.84;5023113;28;19927;-45
2023/05/23 00:07:03;;;;;;;;;;;;;;;14.16;100.00;101894.44;5018396;28;19975;-46
2023/05/23 00:09:28;;;;;;;;;;;;;;;14.13;100.00;101891.75;5018236;28;19936;-45
2023/05/23 00:11:53;;;;;;;;;;;;;;;14.08;100.00;101888.19;5019157;28;19988;-44
2023/05/23 00:14:19;;;;;;;;;;;;;;;14.10;100.00;101894.25;5021811;28;19964;-48
2023/05/23 00:16:46;;;;;;;;;;;;;;;14.09;100.00;101892.50;5022140;28;20055;-46
2023/05/23 00:19:13;;;;;;;;;;;;;;;14.03;100.00;101889.75;5019540;28;20028;-43
2023/05/23 00:21:39;;;;;;;;;;;;;;;14.01;100.00;101891.38;5020978;28;19974;-45
2023/05/23 00:24:04;;;;;;;;;;;;;;;14.01;100.00;101902.59;5019832;28;19921;-47
2023/05/23 00:26:30;;;;;;;;;;;;;;;14.04;100.00;101902.72;5013404;28;19966;-44
2023/05/23 00:28:56;;;;;;;;;;;;;;;14.12;100.00;101895.19;5020265;28;19924;-48
2023/05/23 00:31:21;;;;;;;;;;;;;;;14.14;100.00;101912.50;5019934;28;19987;-47
2023/05/23 00:33:46;;;;;;;;;;;;;;;13.99;100.00;101904.28;5023067;28;20364;-44
2023/05/23 00:36:12;;;;;;;;;;;;;;;13.97;100.00;101910.25;5018598;28;20338;-46
2023/05/23 00:38:38;;;;;;;;;;;;;;;13.94;100.00;101909.31;5017139;28;19929;-44
2023/05/23 00:41:03;;;;;;;;;;;;;;;13.94;100.00;101917.06;5019630;28;19925;-44
2023/05/23 00:43:29;;;;;;;;;;;;;;;13.92;100.00;101918.72;5018683;28;20399;-45
2023/05/23 00:45:54;;;;;;;;;;;;;;;13.96;100.00;101922.31;5018738;28;20008;-43
2023/05/23 00:48:20;;;;;;;;;;;;;;;14.00;100.00;101924.13;5019274;28;19922;-44
2023/05/23 00:50:46;;;;;;;;;;;;;;;14.01;100.00;101922.41;5020056;28;19921;-45
2023/05/23 00:53:12;;;;;;;;;;;;;;;13.95;100.00;101921.44;5020461;28;20406;-44
2023/05/23 00:55:38;;;;;;;;;;;;;;;14.02;100.00;101927.66;5014857;28;20075;-44
2023/05/23 00:58:03;;;;;;;;;;;;;;;13.98;100.00;101917.16;5018622;28;19933;-44
2023/05/23 01:00:29;;;;;;;;;;;;;;;13.97;100.00;101918.88;5010660;28;19925;-44
2023/05/23 01:02:54;;;;;;;;;;;;;;;13.95;100.00;101920.50;5020769;28;19921;-45
2023/05/23 01:05:23;;;;;;;;;;;;;;;13.92;100.00;101930.78;5016682;28;19928;-44
2023/05/23 01:07:49;;;;;;;;;;;;;;;13.98;100.00;101927.50;5020131;28;19921;-44
2023/05/23 01:10:16;;;;;;;;;;;;;;;13.88;100.00;101937.56;5015746;28;20456;-44
2023/05/23 01:12:41;;;;;;;;;;;;;;;13.85;100.00;101929.72;5020494;28;19921;-45
2023/05/23 01:15:11;;;;;;;;;;;;;;;13.91;100.00;101935.06;5021366;28;19932;-44
2023/05/23 01:17:49;;;;;;;;;;;;;;;13.84;100.00;101937.44;5023504;28;20004;-45
2023/05/23 01:20:27;;;;;;;;;;;;;;;13.83;100.00;101938.22;5024768;28;20056;-43
2023/05/23 01:23:10;;;;;;;;;;;;;;;13.73;100.00;101939.66;5023866;28;19917;-45
2023/05/23 01:25:45;;;;;;;;;;;;;;;13.72;100.00;101942.22;5022085;28;19921;-43
2023/05/23 01:28:14;;;;;;;;;;;;;;;13.72;100.00;101934.44;5025897;28;19962;-44
2023/05/23 01:30:40;;;;;;;;;;;;;;;13.74;100.00;101943.13;5022440;28;20000;-43
2023/05/23 01:33:06;;;;;;;;;;;;;;;13.72;100.00;101945.66;5019498;28;19925;-45
2023/05/23 01:35:32;;;;;;;;;;;;;;;13.63;100.00;101950.53;5022586;28;20314;-44
2023/05/23 01:37:57;;;;;;;;;;;;;;;13.64;100.00;101944.53;5027402;28;19921;-45
2023/05/23 01:40:23;;;;;;;;;;;;;;;13.68;100.00;101951.56;5022891;28;19929;-45
2023/05/23 01:42:49;;;;;;;;;;;;;;;13.57;100.00;101943.44;5025532;28;20279;-43
2023/05/23 01:45:15;;;;;;;;;;;;;;;13.53;100.00;101945.88;5027387;28;20086;-43
2023/05/23 01:47:40;;;;;;;;;;;;;;;13.50;100.00;101945.78;5022428;28;19925;-46
2023/05/23 01:50:07;;;;;;;;;;;;;;;13.53;100.00;101943.28;5025950;28;19921;-45
2023/05/23 01:52:33;;;;;;;;;;;;;;;13.41;100.00;101947.25;5022508;28;20291;-44
2023/05/23 01:54:58;;;;;;;;;;;;;;;13.33;100.00;101953.84;5022628;28;20459;-44
2023/05/23 01:57:25;;;;;;;;;;;;;;;13.39;100.00;101963.50;5023212;28;19959;-45
2023/05/23 01:59:50;;;;;;;;;;;;;;;13.45;100.00;101955.94;5027348;28;19925;-46
2023/05/23 02:02:15;;;;;;;;;;;;;;;13.34;100.00;101960.75;5024287;28;19928;-47
2023/05/23 02:04:40;;;;;;;;;;;;;;;13.40;100.00;101966.13;5024740;28;19925;-45
2023/05/23 02:07:06;;;;;;;;;;;;;;;13.38;100.00;101967.78;5019344;28;20466;-46
2023/05/23 02:09:31;;;;;;;;;;;;;;;13.38;100.00;101962.63;5020724;28;20410;-46
2023/05/23 02:11:56;;;;;;;;;;;;;;;13.35;100.00;101966.81;5020867;28;19921;-45
2023/05/23 02:14:22;;;;;;;;;;;;;;;13.35;100.00;101967.69;5017887;28;19929;-45
2023/05/23 02:16:48;;;;;;;;;;;;;;;13.38;100.00;101969.50;5021057;28;19929;-45
2023/05/23 02:19:13;;;;;;;;;;;;;;;13.46;100.00;101974.91;5020487;28;19921;-46
2023/05/23 02:21:38;;;;;;;;;;;;;;;13.43;100.00;101980.88;5023577;28;19939;-45
2023/05/23 02:24:03;;;;;;;;;;;;;;;13.46;100.00;101980.09;5023253;28;19929;-45
2023/05/23 02:26:29;;;;;;;;;;;;;;;13.48;100.00;101978.44;5020719;28;19925;-44
2023/05/23 02:28:55;;;;;;;;;;;;;;;13.52;100.00;101990.63;5022669;28;19921;-46
2023/05/23 02:31:20;;;;;;;;;;;;;;;13.56;100.00;101987.31;5019205;28;19930;-46
2023/05/23 02:33:46;;;;;;;;;;;;;;;13.53;100.00;101982.03;5024178;28;19932;-43
2023/05/23 02:36:11;;;;;;;;;;;;;;;13.56;100.00;101975.28;5020191;28;19929;-46
2023/05/23 02:38:36;;;;;;;;;;;;;;;13.61;100.00;101976.31;5019615;28;19928;-43
2023/05/23 02:41:01;;;;;;;;;;;;;;;13.59;100.00;101975.41;5019798;28;19936;-45
2023/05/23 02:43:27;;;;;;;;;;;;;;;13.55;100.00;101972.66;5023785;28;19931;-45
2023/05/23 02:45:52;;;;;;;;;;;;;;;13.59;100.00;101977.06;5023600;28;19943;-46
2023/05/23 02:48:17;;;;;;;;;;;;;;;13.54;100.00;101987.28;5022269;28;19921;-45
2023/05/23 02:50:43;;;;;;;;;;;;;;;13.61;100.00;101985.78;5017563;28;19921;-44
2023/05/23 02:53:08;;;;;;;;;;;;;;;13.55;100.00;101986.44;5018611;28;19918;-45
2023/05/23 02:55:33;;;;;;;;;;;;;;;13.47;100.00;101982.75;5020885;28;19921;-45
2023/05/23 02:57:58;;;;;;;;;;;;;;;13.46;100.00;101977.50;5024109;28;20433;-43
2023/05/23 03:00:24;;;;;;;;;;;;;;;13.47;100.00;101980.16;5022158;28;19928;-45
2023/05/23 03:02:49;;;;;;;;;;;;;;;13.48;100.00;101983.63;5021452;28;19920;-46
2023/05/23 03:05:15;;;;;;;;;;;;;;;13.40;100.00;101980.75;5021735;28;19925;-48
2023/05/23 03:07:40;;;;;;;;;;;;;;;13.34;100.00;101984.00;5024145;28;20137;-47
2023/05/23 03:10:06;;;;;;;;;;;;;;;13.35;100.00;101982.31;5020880;28;19921;-44
2023/05/23 03:12:31;;;;;;;;;;;;;;;13.36;100.00;101987.53;5022262;28;21029;-45
2023/05/23 03:14:56;;;;;;;;;;;;;;;13.32;100.00;101974.44;5017429;28;20299;-45
2023/05/23 03:17:23;;;;;;;;;;;;;;;13.27;100.00;101979.44;5020599;28;19921;-45
2023/05/23 03:19:48;;;;;;;;;;;;;;;13.25;100.00;101981.13;5020864;28;19925;-44
2023/05/23 03:22:14;;;;;;;;;;;;;;;13.29;100.00;101975.25;5020120;28;20358;-45
2023/05/23 03:24:39;;;;;;;;;;;;;;;13.29;100.00;101985.56;5021038;28;20415;-45
2023/05/23 03:27:04;;;;;;;;;;;;;;;13.35;100.00;101985.78;5020754;28;19932;-47
2023/05/23 03:29:30;;;;;;;;;;;;;;;13.35;100.00;101984.91;5021005;28;19975;-45
2023/05/23 03:31:55;;;;;;;;;;;;;;;13.41;100.00;101993.75;5021638;28;19921;-45
2023/05/23 03:34:22;;;;;;;;;;;;;;;13.33;100.00;101991.69;5018456;28;19933;-45
2023/05/23 03:36:47;;;;;;;;;;;;;;;13.34;100.00;101993.47;5024095;28;20298;-45
2023/05/23 03:39:13;;;;;;;;;;;;;;;13.35;100.00;101998.69;5020028;28;19922;-45
2023/05/23 03:41:38;;;;;;;;;;;;;;;13.35;100.00;101998.69;5023841;28;19925;-48
2023/05/23 03:44:03;;;;;;;;;;;;;;;13.38;100.00;101996.22;5023742;28;19921;-45
2023/05/23 03:46:28;;;;;;;;;;;;;;;13.42;100.00;101999.78;5019747;28;19975;-44
2023/05/23 03:48:54;;;;;;;;;;;;;;;13.42;100.00;102002.38;5018387;28;20778;-45
2023/05/23 03:51:19;;;;;;;;;;;;;;;13.40;100.00;102006.59;5022694;28;20012;-45
2023/05/23 03:53:44;;;;;;;;;;;;;;;13.38;100.00;102003.97;5020032;28;20020;-46
2023/05/23 03:56:10;;;;;;;;;;;;;;;13.38;100.00;102003.97;5022538;28;19929;-47
2023/05/23 03:58:35;;;;;;;;;;;;;;;13.43;100.00;102011.88;5016160;28;20380;-45
2023/05/23 04:01:00;;;;;;;;;;;;;;;13.39;100.00;102003.13;5021007;28;19925;-45
2023/05/23 04:03:26;;;;;;;;;;;;;;;13.42;100.00;102007.53;5023409;28;19918;-45
2023/05/23 04:05:51;;;;;;;;;;;;;;;13.40;100.00;102017.78;5025726;28;20004;-45
2023/05/23 04:08:20;;;;;;;;;;;;;;;13.40;100.00;102012.63;5025973;28;19913;-46
2023/05/23 04:10:46;;;;;;;;;;;;;;;13.43;100.00;102011.88;5022006;28;19984;-44
2023/05/23 04:13:11;;;;;;;;;;;;;;;13.44;100.00;102012.75;5024458;28;19960;-44
2023/05/23 04:15:36;;;;;;;;;;;;;;;13.41;100.00;102013.53;5022271;28;19933;-44
2023/05/23 04:18:02;;;;;;;;;;;;;;;13.43;100.00;102008.41;5023027;28;19921;-45
2023/05/23 04:20:27;;;;;;;;;;;;;;;13.45;100.00;102020.56;5020194;28;20394;-49
2023/05/23 04:22:52;;;;;;;;;;;;;;;13.46;100.00;102024.88;5014781;28;20084;-44
2023/05/23 04:25:19;;;;;;;;;;;;;;;13.46;100.00;102024.00;5021784;28;19921;-44
2023/05/23 04:27:44;;;;;;;;;;;;;;;13.51;100.00;102030.22;5019043;28;19936;-44
2023/05/23 04:30:10;;;;;;;;;;;;;;;13.48;100.00;102024.97;5021473;28;19925;-45
2023/05/23 04:32:37;;;;;;;;;;;;;;;13.49;100.00;102026.72;5019241;28;19917;-44
2023/05/23 04:35:03;;;;;;;;;;;;;;;13.48;100.00;102032.72;5020615;28;19925;-44
2023/05/23 04:37:28;;;;;;;;;;;;;;;13.52;100.00;102048.34;5017180;28;20552;-45
2023/05/23 04:39:53;;;;;;;;;;;;;;;13.51;100.00;102030.22;5020027;28;19928;-44
2023/05/23 04:42:23;;;;;;;;;;;;;;;13.47;100.00;102046.44;5022456;28;19936;-45
2023/05/23 04:44:48;;;;;;;;;;;;;;;13.54;100.00;102045.84;5020407;28;19927;-44
2023/05/23 04:47:14;;;;;;;;;;;;;;;13.46;100.00;102053.31;5025365;28;19925;-44
2023/05/23 04:49:41;;;;;;;;;;;;;;;13.46;100.00;102053.31;5022706;28;19972;-45
2023/05/23 04:52:06;;;;;;;;;;;;;;;13.43;100.00;102062.69;5022228;28;19929;-44
2023/05/23 04:54:32;;;;;;;;;;;;;;;13.43;100.00;102060.09;5021615;28;20020;-44
2023/05/23 04:56:57;;;;;;;;;;;;;;;13.40;100.00;102058.25;5019464;28;19962;-46
2023/05/23 04:59:22;;;;;;;;;;;;;;;13.43;100.00;102062.69;5024296;28;20395;-46
2023/05/23 05:01:48;;;;;;;;;;;;;;;13.38;100.00;102062.50;5017596;28;21095;-45
2023/05/23 05:04:14;;;;;;;;;;;;;;;13.34;100.00;102064.09;5020227;28;19964;-45
2023/05/23 05:06:40;;;;;;;;;;;;;;;13.28;100.00;102062.97;5017647;28;20588;-46
2023/05/23 05:09:05;;;;;;;;;;;;;;;13.23;100.00;102070.59;5021097;28;20003;-51
2023/05/23 05:11:30;;;;;;;;;;;;;;;13.30;100.00;102079.44;5024285;28;19999;-51
2023/05/23 05:13:55;;;;;;;;;;;;;;;13.19;100.00;102079.00;5021704;28;20437;-49
2023/05/23 05:16:21;;;;;;;;;;;;;;;13.17;100.00;102079.78;5017653;28;19925;-51
2023/05/23 05:18:46;;;;;;;;;;;;;;;13.20;100.00;102075.59;5017428;28;19965;-50
2023/05/23 05:21:11;;;;;;;;;;;;;;;13.23;100.00;102085.22;5020201;28;19971;-51
2023/05/23 05:23:37;;;;;;;;;;;;;;;13.24;100.00;102087.84;5015896;28;19929;-51
2023/05/23 05:26:04;;;;;;;;;;;;;;;13.18;100.00;102089.28;5018795;28;19982;-52
2023/05/23 05:28:29;;;;;;;;;;;;;;;13.14;100.00;102078.84;5015563;28;19922;-52
2023/05/23 05:30:54;;;;;;;;;;;;;;;13.11;100.00;102095.94;5016594;28;19933;-48
2023/05/23 05:33:22;;;;;;;;;;;;;;;13.10;100.00;102092.47;5019957;28;19987;-51
2023/05/23 05:35:47;;;;;;;;;;;;;;;13.10;100.00;102092.47;5017765;28;19972;-49
2023/05/23 05:38:13;;;;;;;;;;;;;;;13.11;100.00;102095.94;5018737;28;19995;-48
2023/05/23 05:40:38;;;;;;;;;;;;;;;13.11;100.00;102101.09;5018387;28;20410;-48
2023/05/23 05:43:03;;;;;;;;;;;;;;;13.04;100.00;102105.16;5020158;28;19927;-47
2023/05/23 05:45:28;;;;;;;;;;;;;;;13.04;100.00;102105.16;5015548;28;20292;-47
2023/05/23 05:47:54;;;;;;;;;;;;;;;13.09;100.00;102113.94;5020393;28;19948;-49
2023/05/23 05:50:19;;;;;;;;;;;;;;;13.02;100.00;102121.41;5021422;28;19924;-50
2023/05/23 05:52:45;;;;;;;;;;;;;;;12.93;100.00;102121.06;5017877;28;20035;-50
2023/05/23 05:55:10;;;;;;;;;;;;;;;12.90;100.00;102126.97;5020690;28;20015;-45
2023/05/23 05:57:37;;;;;;;;;;;;;;;12.82;100.00;102130.97;5016947;28;19929;-43
2023/05/23 06:00:10;;;;;;;;;;;;;;;12.77;100.00;102135.94;5017449;28;19925;-45
2023/05/23 06:02:35;;;;;;;;;;;;;;;12.75;100.00;102135.00;5019584;28;19921;-46
2023/05/23 06:05:01;;;;;;;;;;;;;;;12.72;100.00;102134.00;5018729;28;20339;-48
2023/05/23 06:07:26;;;;;;;;;;;;;;;12.66;100.00;102132.03;5021134;28;19921;-45
2023/05/23 06:09:51;;;;;;;;;;;;;;;12.65;100.00;102139.75;5022801;28;19940;-45
2023/05/23 06:12:16;;;;;;;;;;;;;;;12.70;100.00;102148.56;5022534;28;19925;-47
2023/05/23 06:14:42;;;;;;;;;;;;;;;12.70;100.00;102139.09;5025019;28;20008;-46
2023/05/23 06:17:07;;;;;;;;;;;;;;;12.64;100.00;102149.19;5022988;28;20318;-44
2023/05/23 06:19:33;;;;;;;;;;;;;;;12.60;100.00;102137.84;5022755;28;20339;-45
2023/05/23 06:21:59;;;;;;;;;;;;;;;12.56;100.00;102141.16;5022691;28;20513;-45
2023/05/23 06:24:24;;;;;;;;;;;;;;;12.55;100.00;102151.38;5023367;28;19975;-46
2023/05/23 06:26:49;;;;;;;;;;;;;;;12.57;99.89;102160.09;5017443;28;19959;-48
2023/05/23 06:29:14;;;;;;;;;;;;;;;12.52;99.38;102159.88;5020756;28;20287;-45
2023/05/23 06:31:40;;;;;;;;;;;;;;;12.45;99.59;102165.63;5019444;28;19975;-45
2023/05/23 06:34:05;;;;;;;;;;;;;;;12.42;99.99;102172.34;5026653;28;20393;-48
2023/05/23 06:36:30;;;;;;;;;;;;;;;12.35;100.00;102171.22;5025759;28;19960;-47
2023/05/23 06:38:55;;;;;;;;;;;;;;;12.38;99.54;102175.59;5017189;28;19975;-46
2023/05/23 06:41:21;;;;;;;;;;;;;;;12.29;99.68;102179.56;5019221;28;19929;-48
2023/05/23 06:43:46;;;;;;;;;;;;;;;12.27;99.54;102188.06;5022058;28;19932;-47
2023/05/23 06:46:12;;;;;;;;;;;;;;;12.25;99.15;102182.81;5028238;28;20569;-50
2023/05/23 06:48:37;;;;;;;;;;;;;;;12.22;98.42;102189.56;5022693;28;19993;-49
2023/05/23 06:51:02;;;;;;;;;;;;;;;12.20;98.48;102186.94;5027507;28;19929;-47
2023/05/23 06:53:28;;;;;;;;;;;;;;;12.23;97.62;102191.31;5022218;28;19952;-47
2023/05/23 06:55:53;;;;;;;;;;;;;;;12.29;96.30;102191.59;5022090;28;20008;-48
2023/05/23 06:58:18;;;;;;;;;;;;;;;12.27;95.18;102196.69;5021725;28;20020;-50
2023/05/23 07:00:43;;;;;;;;;;;;;;;12.30;93.55;102204.53;5016371;28;19945;-49
2023/05/23 07:03:09;;;;;;;;;;;;;;;12.34;92.91;102196.13;5018566;28;20009;-47
2023/05/23 07:05:35;;;;;;;;;;;;;;;12.42;93.10;102203.28;5022525;28;19925;-48
2023/05/23 07:08:00;;;;;;;;;;;;;;;12.54;90.90;102206.38;5023998;28;19957;-46
2023/05/23 07:10:26;;;;;;;;;;;;;;;12.65;89.61;102205.13;5018953;28;19964;-46
2023/05/23 07:12:51;;;;;;;;;;;;;;;12.75;88.01;102204.69;5016350;28;20015;-44
2023/05/23 07:15:16;;;;;;;;;;;;;;;12.91;87.54;102213.03;5017518;28;20387;-45
2023/05/23 07:17:42;;;;;;;;;;;;;;;13.13;85.79;102207.91;5009896;28;20015;-45
2023/05/23 07:20:08;;;;;;;;;;;;;;;13.37;85.54;102218.34;5020917;28;19924;-45
2023/05/23 07:22:33;;;;;;;;;;;;;;;13.49;85.35;102220.50;5020851;28;19917;-45
2023/05/23 07:24:58;;;;;;;;;;;;;;;13.58;85.07;102218.25;5021546;28;20765;-45
2023/05/23 07:27:23;;;;;;;;;;;;;;;13.62;84.38;102220.16;5019243;28;19921;-45
2023/05/23 07:29:49;;;;;;;;;;;;;;;13.61;83.23;102221.84;5019418;28;19921;-45
2023/05/23 07:32:15;;;;;;;;;;;;;;;13.60;81.04;102222.69;5022828;28;19921;-45
2023/05/23 07:34:40;;;;;;;;;;;;;;;13.55;79.18;102223.31;5021463;28;19955;-46
2023/05/23 07:37:06;;;;;;;;;;;;;;;13.51;78.39;102229.19;5019973;28;19928;-45
2023/05/23 07:39:31;;;;;;;;;;;;;;;13.50;80.40;102222.28;5020436;28;19925;-45
2023/05/23 07:41:56;;;;;;;;;;;;;;;13.44;80.41;102238.41;5020336;28;19925;-46
2023/05/23 07:44:22;;;;;;;;;;;;;;;13.45;79.36;102236.72;5021761;28;19979;-47
2023/05/23 07:46:47;;;;;;;;;;;;;;;13.47;80.33;102238.56;5013020;28;19971;-48
2023/05/23 07:49:12;;;;;;;;;;;;;;;13.52;79.58;102238.69;5020624;28;19917;-47
2023/05/23 07:51:38;;;;;;;;;;;;;;;13.57;78.24;102229.44;5022531;28;19929;-45
2023/05/23 07:54:03;;;;;;;;;;;;;;;13.53;79.62;102240.47;5021842;28;19952;-45
2023/05/23 07:56:28;;;;;;;;;;;;;;;13.57;79.51;102243.22;5023168;28;19961;-49
2023/05/23 07:58:53;;;;;;;;;;;;;;;13.54;80.15;102240.53;5025793;28;19933;-47
2023/05/23 08:01:19;;;;;;;;;;;;;;;13.61;79.58;102244.22;5022346;28;19968;-46
2023/05/23 08:03:45;;;;;;;;;;;;;;;13.52;79.03;102237.00;5023399;28;19921;-47
2023/05/23 08:06:10;;;;;;;;;;;;;;;13.47;81.07;102245.41;5024913;28;19925;-48
2023/05/23 08:08:36;;;;;;;;;;;;;;;13.45;81.69;102247.03;5023232;28;19948;-47
2023/05/23 08:11:02;;;;;;;;;;;;;;;13.39;82.74;102248.56;5023306;28;19936;-47
2023/05/23 08:13:27;;;;;;;;;;;;;;;13.35;82.19;102258.75;5023744;28;19917;-48
2023/05/23 08:15:52;;;;;;;;;;;;;;;13.29;82.16;102255.94;5024982;28;19921;-46
2023/05/23 08:18:18;;;;;;;;;;;;;;;13.36;82.86;102247.59;5021307;28;19924;-46
2023/05/23 08:20:43;;;;;;;;;;;;;;;13.44;81.96;102255.63;5010703;28;20190;-46
2023/05/23 08:23:10;;;;;;;;;;;;;;;13.46;81.89;102251.38;5018956;28;19933;-46
2023/05/23 08:25:36;;;;;;;;;;;;;;;13.49;83.05;102254.97;5025890;28;20356;-46
2023/05/23 08:28:01;;;;;;;;;;;;;;;13.54;82.01;102250.00;5017517;28;19959;-46
2023/05/23 08:30:27;;;;;;;;;;;;;;;13.65;82.95;102256.44;5019119;28;19936;-45
2023/05/23 08:32:52;;;;;;;;;;;;;;;13.67;82.44;102252.22;5016217;28;19924;-47
2023/05/23 08:35:18;;;;;;;;;;;;;;;13.68;81.80;102256.56;5019242;28;19928;-55
2023/05/23 08:37:45;;;;;;;;;;;;;;;13.60;82.65;102261.44;5018217;28;20015;-52
2023/05/23 08:40:12;;;;;;;;;;;;;;;13.57;82.82;102255.25;5016852;28;20206;-54
2023/05/23 08:42:38;;;;;;;;;;;;;;;13.53;83.54;102258.53;5020907;28;19924;-54
2023/05/23 08:45:04;;;;;;;;;;;;;;;13.45;84.24;102259.97;5016697;28;21282;-55
2023/05/23 08:47:32;;;;;;;;;;;;;;;13.46;85.20;102270.34;5018787;28;19929;-55
2023/05/23 08:49:58;;;;;;;;;;;;;;;13.63;85.48;102263.25;5019870;28;19924;-56
2023/05/23 08:52:24;;;;;;;;;;;;;;;13.89;84.32;102264.22;5014063;28;20295;-55
2023/05/23 08:54:49;;;;;;;;;;;;;;;14.12;82.69;102268.53;5017028;28;20398;-56
2023/05/23 08:57:15;;;;;;;;;;;;;;;14.37;81.22;102259.91;5016274;28;19921;-54
2023/05/23 08:59:41;;;;;;;;;;;;;;;14.38;79.85;102264.28;5017811;28;19976;-54
2023/05/23 09:02:09;;;;;;;;;;;;;;;14.42;81.16;102273.91;5013677;28;20615;-56
2023/05/23 09:04:35;;;;;;;;;;;;;;;14.38;79.56;102266.88;5016829;28;19921;-56
2023/05/23 09:07:01;;;;;;;;;;;;;;;14.33;80.79;102283.94;5017919;28;20586;-55
2023/05/23 09:09:26;;;;;;;;;;;;;;;14.26;79.77;102289.72;5017091;28;19925;-55
2023/05/23 09:11:53;;;;;;;;;;;;;;;14.28;79.71;102282.91;5022386;28;19925;-56
2023/05/23 09:14:18;;;;;;;;;;;;;;;14.38;78.12;102284.13;5018738;28;19940;-54
2023/05/23 09:16:46;;;;;;;;;;;;;;;14.41;76.33;102284.19;5019298;28;20371;-54
2023/05/23 09:19:12;;;;;;;;;;;;;;;14.48;77.74;102293.97;5019925;28;19936;-53
2023/05/23 09:21:41;;;;;;;;;;;;;;;14.61;75.16;102284.91;5013366;28;19936;-55
2023/05/23 09:24:06;;;;;;;;;;;;;;;14.53;74.33;102295.00;5016674;28;20360;-55
2023/05/23 09:26:32;;;;;;;;;;;;;;;14.51;74.53;102294.09;5015884;28;20011;-55
2023/05/23 09:29:00;;;;;;;;;;;;;;;14.52;76.04;102290.66;5014857;28;19929;-56
2023/05/23 09:31:27;;;;;;;;;;;;;;;14.52;73.46;102297.56;5013357;28;19924;-56
2023/05/23 09:33:52;;;;;;;;;;;;;;;14.51;73.24;102295.81;5018957;28;20435;-57
2023/05/23 09:36:17;;;;;;;;;;;;;;;14.54;74.51;102308.84;5013825;28;19983;-55
2023/05/23 09:38:44;;;;;;;;;;;;;;;14.59;72.45;102300.41;5020225;28;19968;-56
2023/05/23 09:41:12;;;;;;;;;;;;;;;14.71;70.87;102302.53;5018965;28;19928;-55
2023/05/23 09:43:39;;;;;;;;;;;;;;;14.73;72.33;102303.44;5020975;28;19926;-55
2023/05/23 09:46:08;;;;;;;;;;;;;;;14.86;71.48;102300.44;5022671;28;20368;-56
2023/05/23 09:48:34;;;;;;;;;;;;;;;14.95;71.04;102297.28;5022912;28;20390;-54
2023/05/23 09:51:03;;;;;;;;;;;;;;;15.01;69.77;102294.91;5020494;28;19926;-57
2023/05/23 09:53:28;;;;;;;;;;;;;;;15.07;67.98;102302.00;5020626;28;19921;-57
2023/05/23 09:55:54;;;;;;;;;;;;;;;15.30;69.27;102298.44;5022098;28;20288;-55
2023/05/23 09:58:22;;;;;;;;;;;;;;;15.54;68.54;102299.19;5017442;28;20040;-56
2023/05/23 10:00:50;;;;;;;;;;;;;;;15.77;67.80;102301.59;5019734;28;19928;-56
2023/05/23 10:03:16;;;;;;;;;;;;;;;16.06;66.63;102295.56;5013101;28;19925;-56
2023/05/23 10:05:48;;;;;;;;;;;;;;;16.20;66.29;102295.06;5018663;28;19933;-56
2023/05/23 10:08:16;;;;;;;;;;;;;;;16.22;66.61;102301.19;5020283;28;19921;-55
2023/05/23 10:10:57;;;;;;;;;;;;;;;16.25;63.18;102306.44;5019386;28;19940;-55
2023/05/23 10:13:26;;;;;;;;;;;;;;;16.14;62.47;102300.06;5019219;28;19971;-56
2023/05/23 10:15:54;;;;;;;;;;;;;;;15.99;58.70;102298.81;5016393;28;19932;-56
2023/05/23 10:18:25;;;;;;;;;;;;;;;16.11;62.23;102294.81;5020388;28;19927;-55
2023/05/23 10:20:52;;;;;;;;;;;;;;;16.07;61.11;102307.69;5019147;28;19925;-57
2023/05/23 10:23:18;;;;;;;;;;;;;;;16.14;58.58;102294.88;5019686;28;19928;-55
2023/05/23 10:25:44;;;;;;;;;;;;;;;16.19;59.23;102307.16;5019672;28;19925;-56
2023/05/23 10:28:10;;;;;;;;;;;;;;;16.34;59.73;102304.13;5021095;28;19920;-56
2023/05/23 10:30:36;;;;;;;;;;;;;;;16.38;56.31;102305.06;5019230;28;19925;-56
2023/05/23 10:33:03;;;;;;;;;;;;;;;16.37;59.05;102309.38;5021146;28;22216;-55
2023/05/23 10:35:37;;;;;;;;;;;;;;;16.50;56.46;102314.09;5020886;28;19921;-55
2023/05/23 10:38:05;;;;;;;;;;;;;;;16.49;56.00;102312.31;5012493;28;19917;-56
2023/05/23 10:40:31;;;;;;;;;;;;;;;16.46;58.33;102308.75;5018975;28;20388;-55
2023/05/23 10:43:03;;;;;;;;;;;;;;;16.42;55.19;102304.31;5021458;28;19917;-55
2023/05/23 10:45:28;;;;;;;;;;;;;;;16.55;56.12;102301.19;5016966;28;19987;-56
2023/05/23 10:47:53;;;;;;;;;;;;;;;16.52;59.01;102307.22;5017684;28;20576;-55
2023/05/23 10:50:35;;;;;;;;;;;;;;;16.71;56.22;102305.13;5017931;28;19935;-55
2023/05/23 10:53:02;;;;;;;;;;;;;;;16.70;56.89;102303.34;5018859;28;20307;-55
2023/05/23 10:55:30;;;;;;;;;;;;;;;16.58;56.00;102315.16;5016919;28;20143;-56
2023/05/23 10:58:08;;;;;;;;;;;;;;;16.59;53.96;102306.53;5019205;28;20350;-55
2023/05/23 11:00:34;;;;;;;;;;;;;;;16.72;54.82;102309.47;5021200;28;19944;-56
2023/05/23 11:02:59;;;;;;;;;;;;;;;16.61;52.63;102307.44;5019100;28;19921;-56
2023/05/23 11:05:30;;;;;;;;;;;;;;;16.56;53.57;102303.88;5019643;28;19952;-56
2023/05/23 11:08:16;;;;;;;;;;;;;;;16.71;52.56;102311.19;5021458;28;19917;-56
2023/05/23 11:10:55;;;;;;;;;;;;;;;16.85;53.07;102295.94;5017542;28;19968;-56
2023/05/23 11:13:21;;;;;;;;;;;;;;;16.81;54.99;102309.72;5020603;28;19925;-57
2023/05/23 11:15:46;;;;;;;;;;;;;;;16.72;52.57;102299.97;5019068;28;19996;-56
2023/05/23 11:18:33;;;;;;;;;;;;;;;16.84;52.34;102302.00;5017916;28;20817;-56
2023/05/23 11:20:59;;;;;;;;;;;;;;;16.95;52.67;102304.88;5024769;28;19921;-54
2023/05/23 11:23:38;;;;;;;;;;;;;;;17.16;53.57;102293.25;5020928;28;20026;-57
2023/05/23 11:26:03;;;;;;;;;;;;;;;17.30;53.50;102293.59;5023132;28;20320;-56
2023/05/23 11:28:28;;;;;;;;;;;;;;;17.26;51.05;102296.09;5018668;28;20619;-56
2023/05/23 11:30:55;;;;;;;;;;;;;;;17.19;50.88;102307.19;5022469;28;19921;-57
2023/05/23 11:33:21;;;;;;;;;;;;;;;17.02;52.11;102306.78;5021995;28;19922;-56
2023/05/23 11:35:47;;;;;;;;;;;;;;;17.04;51.25;102305.94;5025044;28;20387;-57
2023/05/23 11:38:15;;;;;;;;;;;;;;;17.11;51.72;102302.69;5021907;28;19956;-57
2023/05/23 11:40:41;;;;;;;;;;;;;;;17.26;52.30;102309.09;5023477;28;19925;-56
2023/05/23 11:43:08;;;;;;;;;;;;;;;17.50;50.03;102298.38;5020353;28;19925;-56
2023/05/23 11:45:35;;;;;;;;;;;;;;;17.58;50.73;102304.59;5012432;28;19928;-57
2023/05/23 11:48:03;;;;;;;;;;;;;;;17.47;49.56;102301.75;5014538;28;20280;-56
2023/05/23 11:50:29;;;;;;;;;;;;;;;17.30;49.65;102318.72;5018563;28;20959;-57
2023/05/23 11:52:54;;;;;;;;;;;;;;;17.31;52.47;102325.66;5020342;28;19921;-56
2023/05/23 11:55:20;;;;;;;;;;;;;;;17.40;51.47;102321.53;5020205;28;19976;-56
2023/05/23 11:57:48;;;;;;;;;;;;;;;17.51;51.94;102311.41;5020423;28;20192;-56
2023/05/23 12:00:14;;;;;;;;;;;;;;;17.49;48.98;102314.81;5017029;28;20273;-56
2023/05/23 12:02:41;;;;;;;;;;;;;;;17.54;50.67;102303.69;5018184;28;19925;-56
2023/05/23 12:05:07;;;;;;;;;;;;;;;17.71;50.57;102301.41;5017783;28;19917;-56
2023/05/23 12:07:32;;;;;;;;;;;;;;;17.83;49.38;102306.91;5018058;28;19929;-56
2023/05/23 12:09:58;;;;;;;;;;;;;;;17.84;50.47;102313.03;5016295;28;19951;-57
2023/05/23 12:12:23;;;;;;;;;;;;;;;17.82;50.83;102322.50;5016481;28;20576;-55
2023/05/23 12:14:48;;;;;;;;;;;;;;;17.83;51.66;102313.84;5017511;28;19953;-56
2023/05/23 12:17:14;;;;;;;;;;;;;;;17.70;48.51;102329.16;5016947;28;19928;-56
2023/05/23 12:19:39;;;;;;;;;;;;;;;17.42;49.00;102339.81;5016193;28;20006;-54
2023/05/23 12:22:07;;;;;;;;;;;;;;;17.40;48.02;102329.34;5015426;28;19964;-56
2023/05/23 12:24:33;;;;;;;;;;;;;;;17.47;50.50;102321.69;5019349;28;19929;-54
2023/05/23 12:26:59;;;;;;;;;;;;;;;17.51;49.60;102324.41;5016855;28;19917;-54